DLY606 LSZB-EDXW
Flight info
| Callsign | DLY606 |
|---|---|
| Flight time | N/A |
| Altitude | 38000 |
| Route | BERSU N871 DITON T163 ZUE T125 ROMIR N851 TEDGO/N0464F390 DCT LBU/N0464F380 N851 RIMKI Z99 ELNAT P605 LUXUX/N0463F400 P605 NORTA Z595 NIE N850 ELSOB Y348 OMWEG DCT OLDIP |
| Aircraft | CL60/M-SBDE1E2E3FGHIJ1J4J5J7M3RWXYZ/LB1V1D1 |
Departure
| Time | N/A |
|---|---|
| Airport | Bern Airport (LSZB) |
Arrival
| Time | 2026-05-07 11:29 |
|---|---|
| Airport | Westerland Sylt Airport (EDXW) |
| Time | Latitude | Longitude | Altitude | Speed | Heading |
|---|---|---|---|---|---|
| 2026-05-07 11:02 | 53.06405 | 9.46531 | 38037 ft | 471 kts | 6° |
| 2026-05-07 11:02 | 53.09664 | 9.47225 | 38037 ft | 471 kts | 6° |
| 2026-05-07 11:03 | 53.16150 | 9.48609 | 38037 ft | 471 kts | 6° |
| 2026-05-07 11:03 | 53.22631 | 9.49997 | 38037 ft | 471 kts | 6° |
| 2026-05-07 11:04 | 53.29127 | 9.51391 | 37764 ft | 472 kts | 6° |
| 2026-05-07 11:04 | 53.32370 | 9.52090 | 37517 ft | 469 kts | 6° |
| 2026-05-07 11:04 | 53.35603 | 9.52787 | 37269 ft | 467 kts | 6° |
| 2026-05-07 11:05 | 53.38818 | 9.53481 | 37021 ft | 466 kts | 6° |
| 2026-05-07 11:05 | 53.42046 | 9.54179 | 36774 ft | 464 kts | 6° |
| 2026-05-07 11:05 | 53.45234 | 9.54869 | 36530 ft | 464 kts | 6° |
| 2026-05-07 11:05 | 53.48407 | 9.55557 | 36278 ft | 463 kts | 6° |
| 2026-05-07 11:06 | 53.51614 | 9.56252 | 35907 ft | 463 kts | 6° |
| 2026-05-07 11:06 | 53.54814 | 9.56768 | 35364 ft | 463 kts | 3° |
| 2026-05-07 11:06 | 53.57996 | 9.57129 | 34793 ft | 461 kts | 3° |
| 2026-05-07 11:06 | 53.61192 | 9.57496 | 34205 ft | 460 kts | 3° |
| 2026-05-07 11:07 | 53.64355 | 9.57789 | 33624 ft | 458 kts | 360° |
| 2026-05-07 11:07 | 53.67512 | 9.57446 | 33032 ft | 456 kts | 352° |
| 2026-05-07 11:07 | 53.70645 | 9.56714 | 32443 ft | 455 kts | 351° |
| 2026-05-07 11:07 | 53.73767 | 9.55982 | 31867 ft | 456 kts | 351° |
| 2026-05-07 11:08 | 53.76904 | 9.55250 | 31283 ft | 456 kts | 351° |
| 2026-05-07 11:08 | 53.80042 | 9.54516 | 30699 ft | 457 kts | 351° |
| 2026-05-07 11:08 | 53.83215 | 9.53773 | 30109 ft | 457 kts | 351° |
| 2026-05-07 11:08 | 53.86316 | 9.53046 | 29531 ft | 456 kts | 351° |
| 2026-05-07 11:09 | 53.89482 | 9.52304 | 28940 ft | 453 kts | 351° |
| 2026-05-07 11:09 | 53.92562 | 9.51581 | 28367 ft | 449 kts | 351° |
| 2026-05-07 11:09 | 53.95616 | 9.50862 | 27798 ft | 445 kts | 351° |
| 2026-05-07 11:09 | 53.98638 | 9.50019 | 27231 ft | 441 kts | 345° |
| 2026-05-07 11:10 | 54.01466 | 9.48177 | 26646 ft | 433 kts | 330° |
| 2026-05-07 11:10 | 54.03968 | 9.45306 | 26062 ft | 427 kts | 322° |
| 2026-05-07 11:10 | 54.06311 | 9.42303 | 25517 ft | 423 kts | 322° |
| 2026-05-07 11:10 | 54.08662 | 9.39301 | 24982 ft | 421 kts | 322° |
| 2026-05-07 11:11 | 54.10987 | 9.36329 | 24448 ft | 419 kts | 321° |
| 2026-05-07 11:11 | 54.13302 | 9.33367 | 23914 ft | 416 kts | 321° |
| 2026-05-07 11:11 | 54.15619 | 9.30396 | 23380 ft | 413 kts | 321° |
| 2026-05-07 11:11 | 54.17890 | 9.27481 | 22856 ft | 410 kts | 321° |
| 2026-05-07 11:12 | 54.20160 | 9.24564 | 22332 ft | 407 kts | 321° |
| 2026-05-07 11:12 | 54.22390 | 9.21693 | 21817 ft | 403 kts | 321° |
| 2026-05-07 11:12 | 54.24639 | 9.18795 | 21298 ft | 399 kts | 321° |
| 2026-05-07 11:12 | 54.26818 | 9.15983 | 20795 ft | 396 kts | 321° |
| 2026-05-07 11:13 | 54.29030 | 9.13125 | 20285 ft | 393 kts | 321° |
| 2026-05-07 11:13 | 54.31185 | 9.10335 | 19788 ft | 390 kts | 321° |
| 2026-05-07 11:13 | 54.33334 | 9.07550 | 19291 ft | 387 kts | 321° |
| 2026-05-07 11:13 | 54.35486 | 9.04759 | 18794 ft | 384 kts | 321° |
| 2026-05-07 11:14 | 54.37592 | 9.02022 | 18307 ft | 381 kts | 321° |
| 2026-05-07 11:14 | 54.39694 | 8.99288 | 17820 ft | 378 kts | 321° |
| 2026-05-07 11:14 | 54.41798 | 8.96548 | 17334 ft | 375 kts | 321° |
| 2026-05-07 11:14 | 54.43853 | 8.93867 | 16859 ft | 373 kts | 321° |
| 2026-05-07 11:15 | 54.45900 | 8.91193 | 16384 ft | 370 kts | 322° |
| 2026-05-07 11:15 | 54.47963 | 8.88495 | 15907 ft | 368 kts | 322° |
| 2026-05-07 11:15 | 54.49987 | 8.85845 | 15438 ft | 366 kts | 322° |
| 2026-05-07 11:15 | 54.51991 | 8.83217 | 14975 ft | 363 kts | 322° |
| 2026-05-07 11:16 | 54.53978 | 8.80609 | 14514 ft | 358 kts | 322° |
| 2026-05-07 11:16 | 54.55951 | 8.78015 | 14056 ft | 350 kts | 322° |
| 2026-05-07 11:16 | 54.57848 | 8.75520 | 13618 ft | 342 kts | 322° |
| 2026-05-07 11:16 | 54.59714 | 8.73061 | 13188 ft | 333 kts | 322° |
| 2026-05-07 11:17 | 54.61512 | 8.70636 | 12770 ft | 324 kts | 318° |
| 2026-05-07 11:17 | 54.62976 | 8.67796 | 12349 ft | 316 kts | 308° |
| 2026-05-07 11:17 | 54.64325 | 8.64812 | 11947 ft | 308 kts | 308° |
| 2026-05-07 11:17 | 54.65639 | 8.61928 | 11560 ft | 301 kts | 308° |
| 2026-05-07 11:18 | 54.66905 | 8.59148 | 11186 ft | 294 kts | 308° |
| 2026-05-07 11:18 | 54.68149 | 8.56411 | 10818 ft | 288 kts | 308° |
| 2026-05-07 11:18 | 54.69378 | 8.53708 | 10453 ft | 282 kts | 308° |
| 2026-05-07 11:18 | 54.70575 | 8.51070 | 10098 ft | 277 kts | 309° |
| 2026-05-07 11:19 | 54.71762 | 8.48455 | 9747 ft | 277 kts | 309° |
| 2026-05-07 11:19 | 54.72958 | 8.45815 | 9391 ft | 277 kts | 309° |
| 2026-05-07 11:19 | 54.74142 | 8.43200 | 9014 ft | 278 kts | 309° |
| 2026-05-07 11:19 | 54.75341 | 8.40552 | 8545 ft | 277 kts | 309° |
| 2026-05-07 11:20 | 54.76511 | 8.37964 | 8241 ft | 272 kts | 309° |
| 2026-05-07 11:20 | 54.77677 | 8.35381 | 7882 ft | 272 kts | 309° |
| 2026-05-07 11:20 | 54.78847 | 8.32786 | 7534 ft | 272 kts | 308° |
| 2026-05-07 11:20 | 54.80063 | 8.30295 | 7186 ft | 268 kts | 318° |
| 2026-05-07 11:21 | 54.81538 | 8.28364 | 6836 ft | 264 kts | 325° |
| 2026-05-07 11:21 | 54.83009 | 8.26562 | 6506 ft | 260 kts | 324° |
| 2026-05-07 11:21 | 54.84480 | 8.24744 | 6173 ft | 255 kts | 324° |
| 2026-05-07 11:21 | 54.85903 | 8.22984 | 5851 ft | 250 kts | 324° |
| 2026-05-07 11:22 | 54.87313 | 8.21237 | 5531 ft | 245 kts | 324° |
| 2026-05-07 11:22 | 54.88686 | 8.19535 | 5220 ft | 240 kts | 324° |
| 2026-05-07 11:22 | 54.90022 | 8.17876 | 4917 ft | 236 kts | 324° |
| 2026-05-07 11:22 | 54.91353 | 8.16222 | 4617 ft | 231 kts | 324° |
| 2026-05-07 11:23 | 54.92645 | 8.14616 | 4322 ft | 227 kts | 324° |
| 2026-05-07 11:23 | 54.93922 | 8.13025 | 4035 ft | 222 kts | 324° |
| 2026-05-07 11:23 | 54.95151 | 8.11493 | 3756 ft | 217 kts | 325° |
| 2026-05-07 11:23 | 54.96399 | 8.10035 | 3514 ft | 210 kts | 334° |
| 2026-05-07 11:24 | 54.97772 | 8.09481 | 3275 ft | 210 kts | 0° |
| 2026-05-07 11:24 | 54.99148 | 8.10123 | 3004 ft | 197 kts | 31° |
| 2026-05-07 11:24 | 55.00096 | 8.11656 | 3011 ft | 180 kts | 53° |
| 2026-05-07 11:24 | 55.00829 | 8.13418 | 2998 ft | 177 kts | 55° |
| 2026-05-07 11:25 | 55.01545 | 8.15149 | 2991 ft | 175 kts | 55° |
| 2026-05-07 11:25 | 55.02228 | 8.16864 | 2989 ft | 173 kts | 62° |
| 2026-05-07 11:25 | 55.02472 | 8.18895 | 2972 ft | 171 kts | 96° |
| 2026-05-07 11:25 | 55.01983 | 8.20757 | 2886 ft | 172 kts | 132° |
| 2026-05-07 11:26 | 55.01050 | 8.22033 | 2662 ft | 168 kts | 145° |
| 2026-05-07 11:26 | 55.00090 | 8.23173 | 2360 ft | 164 kts | 144° |
| 2026-05-07 11:26 | 54.99214 | 8.24248 | 2037 ft | 145 kts | 143° |
| 2026-05-07 11:26 | 54.98439 | 8.25208 | 1677 ft | 133 kts | 143° |
| 2026-05-07 11:27 | 54.97694 | 8.26134 | 1471 ft | 130 kts | 142° |
| 2026-05-07 11:27 | 54.96954 | 8.27060 | 1269 ft | 132 kts | 142° |
| 2026-05-07 11:27 | 54.96199 | 8.28000 | 1102 ft | 134 kts | 143° |
| 2026-05-07 11:27 | 54.95435 | 8.28951 | 910 ft | 134 kts | 143° |
| 2026-05-07 11:28 | 54.94681 | 8.29886 | 738 ft | 134 kts | 143° |
| 2026-05-07 11:28 | 54.93926 | 8.30825 | 557 ft | 133 kts | 143° |
| 2026-05-07 11:28 | 54.93168 | 8.31765 | 379 ft | 132 kts | 143° |
| 2026-05-07 11:28 | 54.92425 | 8.32680 | 196 ft | 131 kts | 143° |
| 2026-05-07 11:29 | 54.91691 | 8.33586 | 60 ft | 124 kts | 143° |
| 2026-05-07 11:29 | 54.91088 | 8.34340 | 55 ft | 73 kts | 144° |
| 2026-05-07 11:29 | 54.90839 | 8.34645 | 55 ft | 37 kts | 145° |
| 2026-05-07 11:29 | 54.90654 | 8.34878 | 55 ft | 19 kts | 143° |
| 2026-05-07 11:30 | 54.90602 | 8.34922 | 55 ft | 8 kts | 183° |
| 2026-05-07 11:30 | 54.90542 | 8.34850 | 55 ft | 12 kts | 221° |
| 2026-05-07 11:30 | 54.90466 | 8.34732 | 55 ft | 16 kts | 222° |
| 2026-05-07 11:30 | 54.90374 | 8.34585 | 55 ft | 19 kts | 222° |
| 2026-05-07 11:31 | 54.90309 | 8.34469 | 55 ft | 11 kts | 231° |
| 2026-05-07 11:31 | 54.90261 | 8.34331 | 55 ft | 15 kts | 241° |
| 2026-05-07 11:31 | 54.90235 | 8.34129 | 55 ft | 18 kts | 267° |
| 2026-05-07 11:31 | 54.90245 | 8.33886 | 55 ft | 21 kts | 278° |
| 2026-05-07 11:32 | 54.90335 | 8.33458 | 55 ft | 19 kts | 308° |
| 2026-05-07 11:32 | 54.90449 | 8.33306 | 55 ft | 22 kts | 334° |
| 2026-05-07 11:32 | 54.90607 | 8.33240 | 55 ft | 24 kts | 356° |
| 2026-05-07 11:33 | 54.90781 | 8.33217 | 55 ft | 23 kts | 353° |
| 2026-05-07 11:33 | 54.90894 | 8.33158 | 55 ft | 18 kts | 331° |
| 2026-05-07 11:33 | 54.91001 | 8.33014 | 55 ft | 21 kts | 313° |
| 2026-05-07 11:33 | 54.91104 | 8.32816 | 55 ft | 23 kts | 305° |
| 2026-05-07 11:34 | 54.91170 | 8.32670 | 55 ft | 8 kts | 285° |
| 2026-05-07 11:34 | 54.91153 | 8.32586 | 55 ft | 0 kts | 239° |